Time;durP1;ratioP1;P1;durP2;ratioP2;P2;SDS_P1;SDS_P2;PMS_P1;PMS_P2;Temp;Humidity;BMP_temperature;BMP_pressure;BME280_temperature;BME280_humidity;BME280_pressure;Samples;Min_cycle;Max_cycle;Signal;HPM_P1;HPM_P2
2021/11/13 00:01:35;;;;;;;5.18;3.53;;;16.90;74.90;;;;;;4947069;28;95960;-37
2021/11/13 00:04:07;;;;;;;6.50;2.72;;;17.00;75.00;;;;;;4949767;28;96312;-38
2021/11/13 00:06:37;;;;;;;3.33;2.58;;;17.00;75.10;;;;;;4934259;28;96192;-41
2021/11/13 00:09:09;;;;;;;3.65;2.45;;;17.10;75.10;;;;;;4946580;28;95971;-38
2021/11/13 00:11:40;;;;;;;5.03;2.33;;;17.10;75.00;;;;;;4948108;28;95757;-39
2021/11/13 00:14:21;;;;;;;4.78;2.03;;;17.20;75.10;;;;;;4950060;28;95972;-39
2021/11/13 00:16:51;;;;;;;3.08;2.15;;;17.20;75.10;;;;;;4948570;28;95824;-38
2021/11/13 00:19:21;;;;;;;3.80;2.45;;;17.30;75.10;;;;;;4947987;28;95898;-41
2021/11/13 00:21:53;;;;;;;3.45;2.20;;;17.30;75.00;;;;;;4945023;28;96500;-38
2021/11/13 00:24:27;;;;;;;2.67;1.90;;;17.30;75.10;;;;;;4949401;28;96716;-38
2021/11/13 00:26:57;;;;;;;2.75;2.00;;;17.30;75.00;;;;;;4947317;28;95742;-40
2021/11/13 00:29:28;;;;;;;3.60;1.95;;;17.40;75.00;;;;;;4950095;28;95711;-43
2021/11/13 00:32:01;;;;;;;3.03;1.92;;;17.40;75.00;;;;;;4948397;28;95346;-36
2021/11/13 00:34:33;;;;;;;3.83;2.08;;;17.40;74.90;;;;;;4961494;28;95972;-37
2021/11/13 00:37:04;;;;;;;2.88;1.90;;;17.40;74.90;;;;;;4944856;28;95909;-36
2021/11/13 00:39:35;;;;;;;3.90;1.70;;;17.50;74.90;;;;;;4947121;28;95679;-41
2021/11/13 00:42:05;;;;;;;;;;;17.50;72.60;;;;;;4962442;28;95514;-40
2021/11/13 00:44:37;;;;;;;2.80;1.65;;;17.50;74.70;;;;;;4948994;28;96116;-36
2021/11/13 00:47:07;;;;;;;2.47;2.00;;;17.50;74.60;;;;;;4947393;28;97954;-37
2021/11/13 00:49:37;;;;;;;10.85;1.48;;;17.50;74.70;;;;;;4948527;28;98165;-38
2021/11/13 00:52:08;;;;;;;2.30;1.70;;;17.50;74.60;;;;;;4947702;28;95712;-37
2021/11/13 00:54:39;;;;;;;2.22;1.67;;;17.50;74.60;;;;;;4946839;28;99277;-41
2021/11/13 00:57:11;;;;;;;4.05;1.70;;;17.60;74.70;;;;;;4946533;28;95878;-36
2021/11/13 00:59:42;;;;;;;3.47;2.35;;;17.50;74.60;;;;;;4947132;28;95932;-38
2021/11/13 01:02:13;;;;;;;2.63;1.92;;;17.50;74.50;;;;;;4946334;28;95605;-39
2021/11/13 01:04:45;;;;;;;2.50;1.83;;;17.50;74.60;;;;;;4946380;28;98772;-38
2021/11/13 01:07:16;;;;;;;2.97;1.33;;;17.60;74.50;;;;;;4932593;28;96167;-38
2021/11/13 01:09:46;;;;;;;2.08;1.80;;;17.60;74.50;;;;;;4946729;28;95674;-38
2021/11/13 01:12:18;;;;;;;2.97;2.20;;;17.60;74.50;;;;;;4944056;28;95577;-37
2021/11/13 01:14:49;;;;;;;1.98;1.60;;;17.60;74.40;;;;;;4940902;28;96727;-38
2021/11/13 01:17:20;;;;;;;3.63;1.80;;;17.50;74.40;;;;;;4943658;28;97188;-38
2021/11/13 01:19:51;;;;;;;2.33;1.58;;;17.50;74.20;;;;;;4944412;28;96307;-39
2021/11/13 01:22:22;;;;;;;;;;;17.50;74.30;;;;;;4946470;28;96931;-39
2021/11/13 01:24:52;;;;;;;2.08;1.88;;;17.50;72.30;;;;;;4949219;28;96520;-39
2021/11/13 01:27:22;;;;;;;2.25;1.48;;;17.40;74.40;;;;;;4943875;28;98111;-41
2021/11/13 01:29:53;;;;;;;2.55;1.65;;;17.40;74.50;;;;;;4946868;28;98544;-37
2021/11/13 01:32:27;;;;;;;2.20;1.83;;;17.40;74.50;;;;;;4945754;28;95813;-40
2021/11/13 01:34:58;;;;;;;;;;;17.40;74.60;;;;;;4946306;28;96292;-37
2021/11/13 01:37:28;;;;;;;2.22;1.50;;;17.40;74.50;;;;;;4947742;28;95960;-43
2021/11/13 01:39:58;;;;;;;3.72;1.63;;;17.40;74.50;;;;;;4947392;28;95890;-38
2021/11/13 01:42:33;;;;;;;1.83;1.50;;;17.40;74.40;;;;;;4945140;28;97047;-38
2021/11/13 01:45:07;;;;;;;3.30;1.88;;;17.40;74.40;;;;;;4945855;28;96147;-38
2021/11/13 01:47:39;;;;;;;3.20;1.55;;;17.40;74.40;;;;;;4948016;28;96376;-38
2021/11/13 01:50:22;;;;;;;2.55;1.52;;;17.40;74.50;;;;;;4947262;28;96483;-36
2021/11/13 01:52:54;;;;;;;3.40;2.03;;;17.40;74.40;;;;;;4909787;28;98248;-38
2021/11/13 01:55:29;;;;;;;4.32;2.08;;;17.50;74.70;;;;;;4937574;28;96406;-41
2021/11/13 01:58:02;;;;;;;2.13;1.65;;;17.60;74.70;;;;;;4933686;28;96460;-40
2021/11/13 02:00:39;;;;;;;3.65;1.85;;;17.80;74.50;;;;;;4934079;28;95763;-42
2021/11/13 02:03:14;;;;;;;1.58;1.30;;;17.90;74.30;;;;;;4935136;28;95827;-41
2021/11/13 02:05:48;;;;;;;2.40;1.58;;;17.90;74.10;;;;;;4955875;28;96997;-43
2021/11/13 02:08:26;;;;;;;2.15;1.80;;;17.90;74.00;;;;;;4932983;28;95736;-44
2021/11/13 02:10:57;;;;;;;2.85;1.48;;;17.90;73.90;;;;;;4936161;28;96712;-42
2021/11/13 02:13:29;;;;;;;;;;;17.90;73.70;;;;;;4936680;28;96370;-41
2021/11/13 02:16:00;;;;;;;3.17;1.17;;;17.90;73.70;;;;;;4936250;28;96685;-41
2021/11/13 02:18:31;;;;;;;1.73;1.50;;;18.00;73.60;;;;;;4934302;28;95691;-41
2021/11/13 02:21:02;;;;;;;1.52;1.10;;;17.90;73.50;;;;;;4937369;28;96546;-41
2021/11/13 02:23:33;;;;;;;3.33;1.35;;;18.00;73.30;;;;;;4936510;28;96582;-41
2021/11/13 02:26:05;;;;;;;2.43;1.40;;;18.00;73.20;;;;;;4938369;28;96481;-43
2021/11/13 02:28:37;;;;;;;2.67;1.20;;;18.00;72.90;;;;;;4953205;28;96343;-43
2021/11/13 02:31:11;;;;;;;3.08;1.30;;;18.10;72.80;;;;;;4937943;28;96114;-44
2021/11/13 02:33:43;;;;;;;6.00;1.48;;;18.10;72.70;;;;;;4939022;28;95448;-39
2021/11/13 02:36:14;;;;;;;1.88;1.27;;;18.20;72.50;;;;;;4938270;28;96474;-40
2021/11/13 02:38:45;;;;;;;1.90;1.48;;;18.20;72.20;;;;;;4938170;28;96342;-40
2021/11/13 02:41:18;;;;;;;2.43;1.27;;;18.30;71.90;;;;;;4939998;28;95762;-41
2021/11/13 02:43:52;;;;;;;2.97;1.27;;;18.30;71.80;;;;;;4939099;28;95933;-40
2021/11/13 02:46:22;;;;;;;1.83;1.17;;;18.30;71.60;;;;;;4941761;28;96614;-38
2021/11/13 02:48:56;;;;;;;2.90;1.38;;;18.40;71.50;;;;;;4940713;28;96536;-41
2021/11/13 02:51:26;;;;;;;1.53;1.27;;;18.30;71.50;;;;;;4941438;28;96436;-41
2021/11/13 02:54:00;;;;;;;2.05;1.08;;;18.30;71.60;;;;;;4944465;28;95480;-37
2021/11/13 02:56:35;;;;;;;1.73;1.15;;;18.40;72.00;;;;;;4941413;28;95968;-42
2021/11/13 02:59:06;;;;;;;2.25;1.20;;;18.40;72.00;;;;;;4940362;28;96005;-36
2021/11/13 03:01:36;;;;;;;2.35;1.30;;;18.60;71.90;;;;;;4942804;28;95898;-39
2021/11/13 03:04:07;;;;;;;2.90;1.55;;;18.60;71.80;;;;;;4940420;28;96006;-38
2021/11/13 03:06:37;;;;;;;2.40;1.43;;;18.60;71.70;;;;;;4931239;28;97720;-41
2021/11/13 03:09:07;;;;;;;1.80;1.52;;;18.60;71.70;;;;;;4947422;28;96998;-40
2021/11/13 03:11:38;;;;;;;1.48;1.30;;;18.70;71.70;;;;;;4940462;28;96163;-38
2021/11/13 03:14:10;;;;;;;1.95;1.35;;;18.70;71.70;;;;;;4941335;28;95854;-39
2021/11/13 03:16:41;;;;;;;1.75;1.30;;;18.70;71.70;;;;;;4940970;28;96415;-38
2021/11/13 03:19:13;;;;;;;2.80;1.50;;;18.70;71.60;;;;;;4940446;28;95868;-39
2021/11/13 03:21:44;;;;;;;;;;;18.70;71.50;;;;;;4938662;28;95721;-38
2021/11/13 03:24:14;;;;;;;2.67;1.30;;;18.80;71.30;;;;;;4942527;28;95898;-39
2021/11/13 03:26:44;;;;;;;2.25;1.50;;;18.80;71.20;;;;;;4943489;28;96742;-41
2021/11/13 03:29:22;;;;;;;2.20;1.45;;;18.80;71.10;;;;;;4958439;28;97339;-40
2021/11/13 03:31:55;;;;;;;3.15;1.40;;;18.80;70.90;;;;;;4940751;28;96023;-41
2021/11/13 03:34:26;;;;;;;3.00;1.23;;;18.80;71.00;;;;;;4940266;28;96453;-37
2021/11/13 03:36:56;;;;;;;2.60;1.40;;;18.90;71.00;;;;;;4952841;28;96504;-41
2021/11/13 03:39:26;;;;;;;2.85;1.13;;;18.90;70.90;;;;;;4940403;28;95824;-40
2021/11/13 03:41:57;;;;;;;;;;;18.90;70.90;;;;;;4938697;28;95798;-42
2021/11/13 03:44:27;;;;;;;2.20;1.63;;;18.90;70.80;;;;;;4942378;28;95459;-39
2021/11/13 03:46:59;;;;;;;1.33;1.23;;;18.90;70.70;;;;;;4942037;28;96691;-40
2021/11/13 03:49:31;;;;;;;2.83;1.38;;;18.90;70.70;;;;;;4941026;28;96101;-40
2021/11/13 03:52:02;;;;;;;2.45;1.45;;;18.90;70.70;;;;;;4935721;28;96138;-41
2021/11/13 03:54:33;;;;;;;1.80;1.52;;;19.00;70.60;;;;;;4957085;28;96306;-37
2021/11/13 03:57:08;;;;;;;3.45;1.25;;;18.90;70.40;;;;;;4941776;28;96833;-42
2021/11/13 03:59:39;;;;;;;4.63;1.55;;;18.90;70.50;;;;;;4943801;28;96465;-41
2021/11/13 04:02:11;;;;;;;4.33;1.77;;;18.90;70.40;;;;;;4943560;28;95977;-38
2021/11/13 04:04:42;;;;;;;1.90;1.67;;;18.90;70.40;;;;;;4941002;28;96235;-42
2021/11/13 04:07:13;;;;;;;4.13;1.85;;;18.90;70.40;;;;;;4931367;28;96488;-38
2021/11/13 04:09:43;;;;;;;2.65;1.45;;;18.90;70.50;;;;;;4940282;28;95845;-41
2021/11/13 04:12:14;;;;;;;6.25;2.05;;;18.90;70.40;;;;;;4938719;28;96413;-42
2021/11/13 04:14:48;;;;;;;3.83;1.58;;;18.90;70.50;;;;;;4938761;28;95959;-38
2021/11/13 04:17:18;;;;;;;1.98;1.65;;;18.90;70.50;;;;;;4957868;28;98841;-39
2021/11/13 04:19:49;;;;;;;3.20;1.45;;;18.90;70.40;;;;;;4940581;28;97468;-41
2021/11/13 04:22:21;;;;;;;3.30;1.73;;;18.90;70.40;;;;;;4939292;28;96675;-39
2021/11/13 04:24:53;;;;;;;3.63;1.40;;;18.90;70.50;;;;;;4941812;28;96587;-39
2021/11/13 04:27:22;;;;;;;;;;;18.90;70.50;;;;;;4940357;28;96479;-38
2021/11/13 04:29:54;;;;;;;6.65;2.70;;;18.90;70.50;;;;;;4939362;28;95872;-40
2021/11/13 04:32:29;;;;;;;2.38;1.85;;;18.90;68.50;;;;;;4956984;28;97185;-39
2021/11/13 04:37:30;;;;;;;2.58;1.80;;;18.90;70.60;;;;;;4939848;28;96484;-41
2021/11/13 04:40:01;;;;;;;3.30;2.38;;;18.90;70.60;;;;;;4939377;28;95995;-39
2021/11/13 04:42:32;;;;;;;3.78;1.45;;;18.90;70.60;;;;;;4938046;28;95789;-40
2021/11/13 04:45:05;;;;;;;2.63;1.77;;;18.90;70.60;;;;;;4940837;28;96482;-43
2021/11/13 04:47:36;;;;;;;2.38;2.03;;;19.00;71.30;;;;;;4947111;28;97182;-42
2021/11/13 04:50:07;;;;;;;5.53;2.43;;;19.00;70.60;;;;;;4941939;28;96141;-41
2021/11/13 04:52:39;;;;;;;3.78;2.53;;;19.00;70.50;;;;;;4936899;28;96287;-42
2021/11/13 04:55:13;;;;;;;4.80;3.00;;;19.00;70.50;;;;;;4955207;28;96654;-38
2021/11/13 04:57:47;;;;;;;6.32;3.65;;;19.00;70.50;;;;;;4938722;28;96341;-41
2021/11/13 05:00:20;;;;;;;7.80;3.22;;;19.00;70.40;;;;;;4936330;28;96327;-41
2021/11/13 05:02:54;;;;;;;5.03;2.70;;;19.00;70.30;;;;;;4939266;28;95870;-41
2021/11/13 05:05:28;;;;;;;7.05;3.85;;;19.00;70.50;;;;;;4934011;28;96180;-42
2021/11/13 05:07:58;;;;;;;6.85;3.38;;;19.00;70.50;;;;;;4929773;28;96890;-42
2021/11/13 05:10:30;;;;;;;6.70;2.60;;;19.00;70.50;;;;;;4953431;28;95933;-43
2021/11/13 05:13:02;;;;;;;6.88;3.17;;;19.00;70.40;;;;;;4946555;28;95676;-39
2021/11/13 05:15:37;;;;;;;6.00;3.22;;;19.00;70.60;;;;;;4946818;28;97682;-37
2021/11/13 05:18:07;;;;;;;5.57;3.25;;;18.90;70.60;;;;;;4947785;28;96083;-42
2021/11/13 05:20:38;;;;;;;6.75;3.35;;;18.90;70.70;;;;;;4945668;28;96618;-42
2021/11/13 05:23:09;;;;;;;6.45;2.72;;;18.80;70.70;;;;;;4954760;28;96248;-41
2021/11/13 05:25:40;;;;;;;6.82;3.17;;;18.80;71.40;;;;;;4944379;28;95936;-43
2021/11/13 05:28:10;;;;;;;2.50;2.10;;;18.80;70.80;;;;;;4946286;28;96274;-39
2021/11/13 05:30:41;;;;;;;5.65;3.15;;;18.80;70.80;;;;;;4944021;28;95729;-40
2021/11/13 05:33:12;;;;;;;6.47;2.95;;;18.80;70.90;;;;;;4946330;28;95777;-40
2021/11/13 05:35:43;;;;;;;3.90;1.98;;;18.80;71.00;;;;;;4945277;28;96483;-39
2021/11/13 05:38:13;;;;;;;3.55;2.15;;;18.80;71.00;;;;;;4938250;28;96301;-42
2021/11/13 05:40:44;;;;;;;6.57;2.60;;;18.80;71.10;;;;;;4943268;28;95851;-38
2021/11/13 05:43:16;;;;;;;3.47;2.58;;;18.80;71.10;;;;;;4944247;28;95864;-40
2021/11/13 05:45:47;;;;;;;5.82;2.60;;;18.80;71.20;;;;;;4945571;28;96383;-39
2021/11/13 05:48:18;;;;;;;4.80;3.15;;;18.80;71.10;;;;;;4943353;28;96949;-41
2021/11/13 05:50:48;;;;;;;5.13;2.73;;;18.80;71.00;;;;;;4948037;28;95727;-41
2021/11/13 05:53:18;;;;;;;5.05;2.65;;;18.80;71.10;;;;;;4948134;28;95304;-39
2021/11/13 05:55:51;;;;;;;4.05;2.58;;;18.80;71.20;;;;;;4945642;28;95921;-39
2021/11/13 05:58:22;;;;;;;4.50;3.30;;;18.80;71.10;;;;;;4940706;28;97621;-41
2021/11/13 06:00:52;;;;;;;5.07;2.72;;;18.80;71.10;;;;;;4917324;28;97736;-39
2021/11/13 06:03:23;;;;;;;4.90;2.83;;;18.80;71.30;;;;;;4935251;28;96249;-38
2021/11/13 06:05:57;;;;;;;5.15;3.42;;;18.90;71.60;;;;;;4936611;28;96100;-36
2021/11/13 06:08:28;;;;;;;;;;;19.00;71.50;;;;;;4938156;28;96763;-37
2021/11/13 06:11:00;;;;;;;3.30;2.77;;;19.10;71.40;;;;;;4941428;28;95973;-39
2021/11/13 06:13:34;;;;;;;4.63;3.22;;;19.10;71.20;;;;;;4943365;28;95768;-37
2021/11/13 06:16:08;;;;;;;6.25;4.55;;;19.10;71.10;;;;;;4941821;28;96045;-43
2021/11/13 06:18:38;;;;;;;9.32;6.20;;;19.20;71.00;;;;;;4937408;28;96159;-41
2021/11/13 06:21:10;;;;;;;12.57;6.88;;;19.20;70.80;;;;;;4940961;28;96638;-42
2021/11/13 06:23:45;;;;;;;15.00;7.82;;;19.20;70.70;;;;;;4941018;28;95753;-40
2021/11/13 06:26:17;;;;;;;10.55;7.75;;;19.20;70.50;;;;;;4943901;28;95712;-41
2021/11/13 06:28:48;;;;;;;16.42;10.02;;;19.20;70.40;;;;;;4943119;28;96571;-42
2021/11/13 06:31:20;;;;;;;14.73;10.63;;;19.30;70.60;;;;;;4933764;28;96086;-40
2021/11/13 06:33:51;;;;;;;16.90;10.90;;;19.30;70.80;;;;;;4940282;28;97133;-40
2021/11/13 06:36:21;;;;;;;24.33;12.27;;;19.30;70.80;;;;;;4944204;28;95590;-40
2021/11/13 06:38:51;;;;;;;18.55;12.25;;;19.40;70.60;;;;;;4943019;28;95987;-40
2021/11/13 06:41:25;;;;;;;19.92;12.98;;;19.30;70.60;;;;;;4944545;28;96163;-39
2021/11/13 06:43:58;;;;;;;18.65;11.40;;;19.40;70.50;;;;;;4943046;28;95387;-41
2021/11/13 06:46:30;;;;;;;16.80;12.23;;;19.40;70.50;;;;;;4940555;28;95856;-39
2021/11/13 06:49:00;;;;;;;19.55;11.75;;;19.30;70.20;;;;;;4941407;28;96798;-38
2021/11/13 06:51:30;;;;;;;17.42;10.52;;;19.30;70.20;;;;;;4943359;28;95955;-37
2021/11/13 06:54:00;;;;;;;16.67;11.70;;;19.30;70.00;;;;;;4941956;28;95826;-37
2021/11/13 06:56:32;;;;;;;18.00;12.25;;;19.30;70.00;;;;;;4944287;28;95859;-42
2021/11/13 06:59:06;;;;;;;18.48;10.73;;;19.30;69.90;;;;;;4944385;28;95594;-39
2021/11/13 07:01:37;;;;;;;17.53;11.67;;;19.30;69.80;;;;;;4939984;28;95811;-43
2021/11/13 07:04:12;;;;;;;14.40;10.73;;;19.30;69.90;;;;;;4941980;28;95683;-41
2021/11/13 07:06:44;;;;;;;14.55;10.45;;;19.30;69.70;;;;;;4935987;28;95957;-44
2021/11/13 07:09:15;;;;;;;15.23;10.73;;;19.20;70.20;;;;;;4941172;28;95964;-45
2021/11/13 07:11:46;;;;;;;12.47;9.33;;;19.30;69.60;;;;;;4941446;28;96593;-39
2021/11/13 07:14:17;;;;;;;14.63;10.30;;;19.30;69.50;;;;;;4942321;28;95310;-40
2021/11/13 07:16:48;;;;;;;11.70;8.73;;;19.30;69.40;;;;;;4945799;28;95902;-44
2021/11/13 07:19:19;;;;;;;13.18;8.98;;;19.30;69.40;;;;;;4943957;28;95992;-45
2021/11/13 07:21:50;;;;;;;12.25;9.02;;;19.30;69.40;;;;;;4937510;28;95829;-41
2021/11/13 07:24:20;;;;;;;12.40;8.23;;;19.30;69.60;;;;;;4941942;28;96059;-36
2021/11/13 07:26:53;;;;;;;12.55;8.80;;;19.30;69.50;;;;;;4962808;28;95625;-41
2021/11/13 07:29:27;;;;;;;13.75;8.75;;;19.30;69.40;;;;;;4942976;28;96048;-37
2021/11/13 07:31:58;;;;;;;12.45;9.32;;;19.30;69.30;;;;;;4933974;28;95866;-38
2021/11/13 07:34:29;;;;;;;11.63;8.00;;;19.30;69.30;;;;;;4937605;28;96494;-40
2021/11/13 07:37:00;;;;;;;10.85;7.55;;;19.30;69.20;;;;;;4971460;28;95922;-39
2021/11/13 07:39:31;;;;;;;11.07;7.80;;;19.30;69.10;;;;;;4946760;28;96499;-40
2021/11/13 07:42:03;;;;;;;10.23;7.03;;;19.20;69.20;;;;;;4948055;28;95727;-41
2021/11/13 07:44:33;;;;;;;9.32;7.00;;;19.20;69.10;;;;;;4946576;28;95566;-37
2021/11/13 07:47:03;;;;;;;9.38;7.03;;;19.20;69.10;;;;;;4936167;28;95562;-45
2021/11/13 07:49:34;;;;;;;9.23;7.33;;;19.20;69.10;;;;;;4940424;28;95942;-41
2021/11/13 07:52:07;;;;;;;13.13;8.48;;;19.20;69.10;;;;;;4939275;28;96124;-45
2021/11/13 07:54:38;;;;;;;13.68;9.05;;;19.20;69.10;;;;;;4942814;28;95916;-39
2021/11/13 07:57:10;;;;;;;13.05;9.38;;;19.20;69.00;;;;;;4948933;28;96489;-40
2021/11/13 07:59:41;;;;;;;19.02;12.48;;;19.20;69.00;;;;;;4944377;28;96076;-42
2021/11/13 08:02:13;;;;;;;20.08;14.10;;;19.10;68.90;;;;;;4932649;28;96835;-38
2021/11/13 08:04:44;;;;;;;28.33;19.60;;;19.10;69.00;;;;;;4941483;28;95650;-39
2021/11/13 08:07:15;;;;;;;37.15;27.10;;;19.10;68.90;;;;;;4932793;28;95936;-41
2021/11/13 08:09:46;;;;;;;;;;;19.10;69.60;;;;;;4943959;28;96750;-38
2021/11/13 08:12:17;;;;;;;48.85;35.30;;;19.10;69.60;;;;;;4944608;28;96212;-39
2021/11/13 08:14:47;;;;;;;;;;;19.10;68.90;;;;;;4936221;28;95763;-43
2021/11/13 08:17:18;;;;;;;58.33;42.95;;;19.10;69.00;;;;;;4944180;28;95827;-42
2021/11/13 08:19:50;;;;;;;64.55;46.08;;;19.10;69.00;;;;;;4945753;28;96696;-39
2021/11/13 08:22:22;;;;;;;65.82;48.42;;;19.10;69.00;;;;;;4945589;28;95774;-38
2021/11/13 08:24:52;;;;;;;64.68;49.42;;;19.00;69.00;;;;;;4946227;28;96100;-39
2021/11/13 08:27:23;;;;;;;66.93;49.58;;;19.00;69.00;;;;;;4958113;28;95561;-37
2021/11/13 08:29:54;;;;;;;67.22;47.70;;;19.00;69.00;;;;;;4943969;28;96089;-42
2021/11/13 08:32:25;;;;;;;65.78;47.13;;;19.00;68.90;;;;;;4943136;28;95990;-36
2021/11/13 08:34:56;;;;;;;64.93;46.92;;;19.00;68.90;;;;;;4947376;28;97304;-38
2021/11/13 08:37:27;;;;;;;70.72;49.67;;;19.00;67.00;;;;;;4946552;28;95738;-41
2021/11/13 08:39:59;;;;;;;61.80;45.00;;;19.00;68.80;;;;;;4938161;28;96115;-38
2021/11/13 08:42:30;;;;;;;65.18;47.25;;;19.00;68.80;;;;;;4945402;28;95433;-38
2021/11/13 08:45:00;;;;;;;58.67;44.35;;;18.90;68.70;;;;;;4940677;28;96782;-37
2021/11/13 08:47:31;;;;;;;62.60;47.00;;;18.90;68.70;;;;;;4943559;28;96026;-42
2021/11/13 08:50:04;;;;;;;63.75;44.53;;;18.90;68.80;;;;;;4943678;28;95958;-44
2021/11/13 08:52:34;;;;;;;56.60;41.88;;;18.90;68.90;;;;;;4943115;28;96062;-43
2021/11/13 08:55:06;;;;;;;56.43;39.27;;;18.90;68.70;;;;;;4943574;28;95933;-43
2021/11/13 08:57:44;;;;;;;54.13;42.25;;;18.90;68.80;;;;;;4945385;28;95970;-42
2021/11/13 09:00:19;;;;;;;56.65;42.13;;;18.90;68.70;;;;;;4942451;28;96226;-41
2021/11/13 09:02:57;;;;;;;53.85;40.28;;;18.90;68.70;;;;;;4945545;28;96002;-45
2021/11/13 09:05:29;;;;;;;60.42;41.63;;;18.80;68.50;;;;;;4941440;28;96105;-41
2021/11/13 09:08:03;;;;;;;56.22;39.08;;;18.80;68.60;;;;;;4937824;28;95809;-40
2021/11/13 09:10:34;;;;;;;52.15;37.45;;;18.80;68.50;;;;;;4936630;28;95930;-45
2021/11/13 09:13:10;;;;;;;54.00;36.58;;;18.80;68.30;;;;;;4945438;28;95820;-42
2021/11/13 09:15:41;;;;;;;52.50;35.45;;;18.80;68.50;;;;;;4940388;28;95985;-44
2021/11/13 09:18:16;;;;;;;50.10;35.60;;;18.70;68.50;;;;;;4944219;28;95804;-44
2021/11/13 09:20:50;;;;;;;43.88;32.45;;;18.70;69.30;;;;;;4943915;28;96012;-43
2021/11/13 09:23:21;;;;;;;41.30;29.67;;;18.60;68.90;;;;;;4954081;28;96060;-41
2021/11/13 09:25:53;;;;;;;38.00;25.90;;;18.60;68.70;;;;;;4946041;28;95777;-43
2021/11/13 09:28:24;;;;;;;36.67;27.42;;;18.70;68.80;;;;;;4946150;28;95556;-40
2021/11/13 09:30:59;;;;;;;34.25;24.48;;;18.70;68.70;;;;;;4942780;28;96771;-39
2021/11/13 09:33:31;;;;;;;35.22;24.08;;;18.70;68.40;;;;;;4943707;28;95966;-40
2021/11/13 09:36:03;;;;;;;34.33;23.75;;;18.80;68.50;;;;;;4946569;28;95401;-37
2021/11/13 09:38:43;;;;;;;30.55;22.10;;;18.70;68.40;;;;;;4947428;28;95802;-38
2021/11/13 09:41:19;;;;;;;31.05;23.30;;;18.60;68.40;;;;;;4943398;28;96551;-38
2021/11/13 09:43:50;;;;;;;27.38;20.38;;;18.60;68.40;;;;;;4942964;28;97066;-36
2021/11/13 09:46:20;;;;;;;26.13;19.58;;;18.50;68.40;;;;;;4946139;28;96577;-44
2021/11/13 09:48:57;;;;;;;28.63;19.30;;;18.50;68.40;;;;;;4936495;28;96120;-41
2021/11/13 09:51:28;;;;;;;26.90;18.92;;;18.50;68.40;;;;;;4935360;28;95988;-38
2021/11/13 09:54:06;;;;;;;23.67;18.42;;;18.40;68.40;;;;;;4959565;28;97782;-45
2021/11/13 09:56:40;;;;;;;24.70;18.02;;;18.40;68.50;;;;;;4943710;28;95848;-42
2021/11/13 09:59:11;;;;;;;26.40;17.60;;;18.40;68.50;;;;;;4941336;28;95681;-40
2021/11/13 10:01:41;;;;;;;22.90;16.90;;;18.30;68.50;;;;;;4946106;28;95904;-39
2021/11/13 10:04:13;;;;;;;20.27;16.02;;;18.30;68.50;;;;;;4945560;28;95794;-40
2021/11/13 10:06:43;;;;;;;21.20;15.75;;;18.30;68.50;;;;;;4935205;28;95983;-41
2021/11/13 10:09:14;;;;;;;19.75;16.02;;;18.20;68.50;;;;;;4943569;28;95861;-40
2021/11/13 10:11:50;;;;;;;20.17;15.23;;;18.30;68.60;;;;;;4942433;28;95955;-41
2021/11/13 10:14:33;;;;;;;19.08;14.80;;;18.20;68.50;;;;;;4944040;28;96123;-40
2021/11/13 10:17:25;;;;;;;19.20;13.88;;;18.20;68.50;;;;;;4943227;28;97522;-40
2021/11/13 10:19:57;;;;;;;17.48;13.38;;;18.20;68.70;;;;;;4943888;28;96053;-40
2021/11/13 10:22:50;;;;;;;20.48;14.13;;;18.20;66.80;;;;;;4944799;28;95933;-41
2021/11/13 10:25:21;;;;;;;16.77;12.70;;;18.10;68.70;;;;;;4944332;28;95912;-45
2021/11/13 10:28:16;;;;;;;16.52;11.95;;;18.10;68.80;;;;;;4947059;28;95772;-43
2021/11/13 10:30:47;;;;;;;16.95;12.85;;;18.10;68.80;;;;;;4944931;28;95809;-41
2021/11/13 10:33:30;;;;;;;17.58;12.13;;;18.00;68.80;;;;;;4945876;28;96031;-37
2021/11/13 10:36:04;;;;;;;18.67;12.93;;;18.00;68.90;;;;;;4945620;28;95358;-41
2021/11/13 10:38:36;;;;;;;17.40;12.93;;;18.00;68.90;;;;;;4942532;28;95797;-38
2021/11/13 10:41:11;;;;;;;15.20;11.52;;;18.00;68.90;;;;;;4945943;28;96061;-38
2021/11/13 10:43:45;;;;;;;14.48;10.63;;;17.90;68.90;;;;;;4948645;28;96515;-38
2021/11/13 10:46:22;;;;;;;13.50;10.55;;;17.90;68.90;;;;;;4947872;28;96052;-39
2021/11/13 10:48:57;;;;;;;14.27;10.85;;;17.90;67.10;;;;;;4948876;28;95912;-42
2021/11/13 10:51:33;;;;;;;14.02;10.55;;;17.90;69.00;;;;;;4950294;28;95761;-39
2021/11/13 10:54:18;;;;;;;13.65;9.93;;;17.90;69.10;;;;;;4947541;28;97076;-39
2021/11/13 10:56:57;;;;;;;13.98;9.85;;;17.80;69.10;;;;;;4946894;28;95738;-39
2021/11/13 10:59:33;;;;;;;12.20;9.27;;;17.80;69.10;;;;;;4957027;28;95769;-40
2021/11/13 11:02:06;;;;;;;12.30;9.50;;;17.80;69.10;;;;;;4949262;28;95582;-38
2021/11/13 11:04:44;;;;;;;11.98;9.10;;;17.80;69.20;;;;;;4948616;28;95957;-37
2021/11/13 11:07:21;;;;;;;12.30;8.88;;;17.80;69.20;;;;;;4934104;28;96195;-41
2021/11/13 11:10:09;;;;;;;15.25;9.25;;;17.70;69.30;;;;;;4948014;28;95372;-35
2021/11/13 11:12:47;;;;;;;10.50;8.52;;;17.70;67.20;;;;;;4944940;28;96076;-38
2021/11/13 11:15:19;;;;;;;12.77;8.25;;;17.70;69.20;;;;;;4944242;28;97812;-39
2021/11/13 11:17:57;;;;;;;13.15;8.52;;;17.70;69.20;;;;;;4958178;28;96142;-40
2021/11/13 11:20:28;;;;;;;10.00;7.50;;;17.70;69.30;;;;;;4949137;28;95726;-40
2021/11/13 11:23:13;;;;;;;9.27;7.43;;;17.70;69.30;;;;;;4947536;28;95677;-41
2021/11/13 11:25:43;;;;;;;10.93;8.00;;;17.60;69.30;;;;;;4945308;28;95903;-41
2021/11/13 11:28:14;;;;;;;10.23;7.53;;;17.60;69.30;;;;;;4963282;28;96370;-39
2021/11/13 11:30:49;;;;;;;10.57;7.55;;;17.60;69.30;;;;;;4944784;28;96127;-41
2021/11/13 11:33:38;;;;;;;9.32;7.47;;;17.60;69.40;;;;;;4942064;28;95829;-38
2021/11/13 11:36:34;;;;;;;10.32;7.30;;;17.50;69.40;;;;;;4945401;28;96134;-39
2021/11/13 11:39:08;;;;;;;11.30;7.60;;;17.50;69.30;;;;;;4953867;28;96139;-37
2021/11/13 11:41:39;;;;;;;9.32;7.38;;;17.50;69.40;;;;;;4946077;28;95505;-41
2021/11/13 11:44:12;;;;;;;8.15;6.78;;;17.50;69.40;;;;;;4948946;28;95719;-39
2021/11/13 11:46:42;;;;;;;9.25;6.53;;;17.50;69.50;;;;;;4945850;28;96015;-39
2021/11/13 11:49:14;;;;;;;10.47;7.27;;;17.40;69.40;;;;;;4946307;28;97250;-38
2021/11/13 11:51:46;;;;;;;10.07;6.80;;;17.40;69.40;;;;;;4947459;28;95889;-36
2021/11/13 11:54:18;;;;;;;10.07;7.30;;;17.40;69.60;;;;;;4951433;28;95458;-41
2021/11/13 11:56:51;;;;;;;8.88;6.93;;;17.40;69.50;;;;;;4948945;28;97385;-42
2021/11/13 11:59:23;;;;;;;9.50;6.43;;;17.40;69.50;;;;;;4946084;28;96363;-38
2021/11/13 12:02:15;;;;;;;8.57;6.53;;;17.40;69.50;;;;;;4944751;28;95939;-39
2021/11/13 12:04:49;;;;;;;9.05;6.55;;;17.30;69.50;;;;;;4933208;28;96246;-40
2021/11/13 12:07:32;;;;;;;8.77;5.85;;;17.30;69.50;;;;;;4936690;28;96150;-38
2021/11/13 12:10:30;;;;;;;6.72;5.47;;;17.30;69.60;;;;;;4944984;28;97744;-36
2021/11/13 12:13:18;;;;;;;8.15;5.65;;;17.30;69.60;;;;;;4946963;28;95812;-37
2021/11/13 12:16:01;;;;;;;8.05;5.80;;;17.20;69.60;;;;;;4946758;28;95936;-40
2021/11/13 12:18:44;;;;;;;7.40;5.18;;;17.20;69.60;;;;;;4945821;28;95980;-37
2021/11/13 12:21:17;;;;;;;8.45;5.70;;;17.20;69.70;;;;;;4946644;28;96293;-36
2021/11/13 12:23:52;;;;;;;8.43;5.35;;;17.20;69.70;;;;;;4947887;28;95856;-41
2021/11/13 12:26:34;;;;;;;7.88;5.18;;;17.20;69.70;;;;;;4948109;28;96141;-38
2021/11/13 12:29:06;;;;;;;;;;;17.10;69.70;;;;;;4947735;28;96313;-41
2021/11/13 12:31:46;;;;;;;8.43;6.00;;;17.10;69.70;;;;;;4948965;28;95908;-37
2021/11/13 12:34:20;;;;;;;7.35;5.38;;;17.10;69.80;;;;;;4945880;28;96055;-38
2021/11/13 12:37:00;;;;;;;7.18;4.95;;;17.10;69.80;;;;;;4944306;28;95917;-38
2021/11/13 12:39:36;;;;;;;7.88;5.68;;;17.10;69.70;;;;;;4946396;28;96513;-41
2021/11/13 12:42:11;;;;;;;6.68;5.65;;;17.00;69.70;;;;;;4947735;28;95806;-39
2021/11/13 12:44:44;;;;;;;7.20;5.05;;;17.00;69.70;;;;;;4945523;28;95937;-37
2021/11/13 12:47:29;;;;;;;7.55;4.90;;;17.00;69.80;;;;;;4922487;28;96434;-38
2021/11/13 12:50:02;;;;;;;9.98;5.35;;;17.00;70.10;;;;;;4935457;28;96204;-40
2021/11/13 12:52:39;;;;;;;5.38;4.05;;;17.00;68.10;;;;;;4946049;28;96236;-39
2021/11/13 12:55:10;;;;;;;6.22;3.88;;;17.00;70.60;;;;;;4937242;28;97973;-44
2021/11/13 12:58:06;;;;;;;6.90;4.03;;;17.10;70.70;;;;;;4945675;28;95690;-44
2021/11/13 13:00:47;;;;;;;6.97;4.38;;;17.20;70.90;;;;;;4936366;28;96098;-45
2021/11/13 13:03:21;;;;;;;;;;;17.20;71.00;;;;;;4945795;28;96235;-40
2021/11/13 13:06:04;;;;;;;5.22;3.95;;;17.30;71.20;;;;;;4941055;28;96250;-42
2021/11/13 13:08:37;;;;;;;5.63;4.03;;;17.40;71.60;;;;;;4939306;28;96959;-38
2021/11/13 13:11:12;;;;;;;7.47;3.83;;;17.60;71.50;;;;;;4946313;28;95940;-41
2021/11/13 13:13:45;;;;;;;6.10;3.80;;;17.70;71.50;;;;;;4946331;28;95968;-38
2021/11/13 13:16:19;;;;;;;4.78;3.17;;;17.80;71.30;;;;;;4946920;28;95799;-39